createdAt,value
2022-10-27T00:00:33.941Z,5.47
2022-10-27T00:03:00.996Z,7.15
2022-10-27T00:05:28.112Z,6.28
2022-10-27T00:07:55.192Z,11.55
2022-10-27T00:10:22.297Z,8.82
2022-10-27T00:12:49.471Z,8.88
2022-10-27T00:15:16.801Z,8.23
2022-10-27T00:17:43.914Z,6.93
2022-10-27T00:20:11.237Z,7.75
2022-10-27T00:22:38.167Z,6.38
2022-10-27T00:25:06.115Z,8.98
2022-10-27T00:27:33.079Z,7.95
2022-10-27T00:29:59.971Z,10.63
2022-10-27T00:32:26.964Z,7.45
2022-10-27T00:34:53.849Z,6.65
2022-10-27T00:37:20.811Z,9.25
2022-10-27T00:39:47.723Z,7.75
2022-10-27T00:42:15.109Z,7.50
2022-10-27T00:44:44.626Z,7.07
2022-10-27T00:47:11.539Z,6.38
2022-10-27T00:50:06.466Z,4.93
2022-10-27T00:52:54.986Z,7.75
2022-10-27T00:55:26.547Z,8.30
2022-10-27T00:57:58.202Z,7.13
2022-10-27T01:00:25.336Z,6.55
2022-10-27T01:02:52.947Z,5.35
2022-10-27T01:05:29.105Z,8.50
2022-10-27T01:07:59.886Z,6.47
2022-10-27T01:10:27.518Z,6.18
2022-10-27T01:12:55.572Z,5.68
2022-10-27T01:15:40.852Z,6.05
2022-10-27T01:18:19.543Z,4.88
2022-10-27T01:21:28.263Z,6.13
2022-10-27T01:24:30.555Z,7.80
2022-10-27T01:27:04.150Z,6.30
2022-10-27T01:29:49.306Z,12.10
2022-10-27T01:32:22.083Z,5.55
2022-10-27T01:34:53.741Z,5.88
2022-10-27T01:37:31.225Z,6.07
2022-10-27T01:40:24.685Z,7.38
2022-10-27T01:42:58.231Z,6.75
2022-10-27T01:45:29.338Z,6.55
2022-10-27T01:47:57.679Z,10.88
2022-10-27T01:50:50.439Z,8.82
2022-10-27T01:53:21.710Z,8.20
2022-10-27T01:56:14.993Z,8.63
2022-10-27T01:59:04.299Z,10.60
2022-10-27T02:01:55.851Z,12.13
2022-10-27T02:04:50.965Z,11.45
2022-10-27T02:07:45.458Z,6.53
2022-10-27T02:15:39.099Z,9.52
2022-10-27T02:18:11.407Z,14.32
2022-10-27T02:20:43.535Z,7.65
2022-10-27T02:23:16.470Z,8.75
2022-10-27T02:25:55.903Z,7.38
2022-10-27T02:28:37.683Z,7.68
2022-10-27T02:31:07.171Z,5.32
2022-10-27T02:33:34.542Z,5.68
2022-10-27T02:36:01.975Z,7.10
2022-10-27T02:38:28.905Z,5.07
2022-10-27T02:40:55.809Z,5.93
2022-10-27T02:43:22.787Z,8.20
2022-10-27T02:45:49.655Z,9.32
2022-10-27T02:48:16.558Z,5.25
2022-10-27T02:50:43.508Z,5.55
2022-10-27T02:53:10.451Z,5.72
2022-10-27T02:55:37.336Z,6.75
2022-10-27T02:58:04.292Z,6.30
2022-10-27T03:00:31.701Z,10.18
2022-10-27T03:02:58.674Z,6.63
2022-10-27T03:05:25.561Z,7.07
2022-10-27T03:07:52.449Z,6.82
2022-10-27T03:10:19.353Z,6.00
2022-10-27T03:12:48.279Z,9.40
2022-10-27T03:15:15.801Z,7.90
2022-10-27T03:17:49.114Z,6.32
2022-10-27T03:20:17.298Z,5.43
2022-10-27T03:22:44.216Z,5.82
2022-10-27T03:25:12.006Z,5.75
2022-10-27T03:27:43.630Z,6.95
2022-10-27T03:30:13.343Z,3.95
2022-10-27T03:32:40.371Z,5.35
2022-10-27T03:35:07.535Z,6.05
2022-10-27T03:37:35.001Z,8.57
2022-10-27T03:40:01.916Z,8.60
2022-10-27T03:42:28.835Z,5.78
2022-10-27T03:44:55.758Z,5.78
2022-10-27T03:47:22.760Z,4.28
2022-10-27T03:49:49.695Z,14.15
2022-10-27T03:52:16.724Z,5.28
2022-10-27T03:54:43.630Z,4.30
2022-10-27T03:57:13.625Z,4.75
2022-10-27T03:59:40.647Z,8.13
2022-10-27T04:02:07.734Z,8.05
2022-10-27T04:04:34.842Z,6.85
2022-10-27T04:07:01.741Z,5.63
2022-10-27T04:09:28.689Z,5.60
2022-10-27T04:11:55.618Z,8.23
2022-10-27T04:14:22.673Z,5.43
2022-10-27T04:16:51.442Z,5.53
2022-10-27T04:19:19.670Z,6.80
2022-10-27T04:21:47.200Z,6.82
2022-10-27T04:24:14.151Z,6.03
2022-10-27T04:26:41.158Z,4.30
2022-10-27T04:29:08.154Z,13.45
2022-10-27T04:31:35.032Z,7.65
2022-10-27T04:34:01.970Z,5.93
2022-10-27T04:36:30.528Z,6.75
2022-10-27T04:38:57.461Z,8.27
2022-10-27T04:41:24.355Z,8.23
2022-10-27T04:46:23.580Z,8.10
2022-10-27T04:48:50.447Z,5.05
2022-10-27T04:51:19.385Z,6.18
2022-10-27T04:53:49.269Z,7.05
2022-10-27T04:56:16.423Z,11.00
2022-10-27T04:58:43.572Z,5.30
2022-10-27T05:01:12.503Z,6.18
2022-10-27T05:03:39.513Z,5.93
2022-10-27T05:06:06.699Z,9.30
2022-10-27T05:08:33.807Z,4.38
2022-10-27T05:11:00.697Z,8.52
2022-10-27T05:13:27.642Z,7.32
2022-10-27T05:16:03.341Z,5.97
2022-10-27T05:18:30.907Z,11.57
2022-10-27T05:20:57.822Z,6.93
2022-10-27T05:23:24.851Z,11.48
2022-10-27T05:25:56.123Z,6.72
2022-10-27T05:28:23.471Z,5.70
2022-10-27T05:30:50.594Z,9.48
2022-10-27T05:33:17.585Z,8.20
2022-10-27T05:35:45.852Z,6.82
2022-10-27T05:38:12.934Z,8.07
2022-10-27T05:40:39.883Z,8.45
2022-10-27T05:43:06.926Z,6.40
2022-10-27T05:45:34.436Z,8.82
2022-10-27T05:48:05.895Z,8.57
2022-10-27T05:50:34.212Z,8.52
2022-10-27T05:53:01.483Z,11.68
2022-10-27T05:55:28.954Z,9.85
2022-10-27T05:58:00.747Z,7.55
2022-10-27T06:00:33.693Z,10.00
2022-10-27T06:03:02.094Z,10.57
2022-10-27T06:05:31.088Z,6.07
2022-10-27T06:07:58.199Z,9.85
2022-10-27T06:10:25.337Z,6.32
2022-10-27T06:12:52.371Z,8.25
2022-10-27T06:15:19.325Z,13.13
2022-10-27T06:17:51.768Z,8.82
2022-10-27T06:20:19.016Z,8.60
2022-10-27T06:22:48.967Z,7.88
2022-10-27T06:25:16.522Z,10.77
2022-10-27T06:27:43.559Z,10.15
2022-10-27T06:30:10.766Z,10.40
2022-10-27T06:32:40.546Z,7.15
2022-10-27T06:35:09.429Z,11.65
2022-10-27T06:37:40.788Z,8.45
2022-10-27T06:40:08.852Z,11.27
2022-10-27T06:42:49.314Z,11.02
2022-10-27T06:45:26.183Z,11.35
2022-10-27T06:47:58.313Z,7.35
2022-10-27T06:50:25.570Z,9.98
2022-10-27T06:52:52.915Z,11.55
2022-10-27T06:55:20.573Z,6.65
2022-10-27T06:57:48.495Z,9.60
2022-10-27T07:00:15.864Z,9.98
2022-10-27T07:02:42.869Z,8.25
2022-10-27T07:05:10.444Z,11.90
2022-10-27T07:07:37.614Z,9.90
2022-10-27T07:10:06.620Z,10.65
2022-10-27T07:12:33.673Z,8.90
2022-10-27T07:15:00.668Z,9.68
2022-10-27T07:17:27.597Z,8.82
2022-10-27T07:19:54.539Z,12.40
2022-10-27T07:22:21.618Z,9.23
2022-10-27T07:24:48.541Z,10.10
2022-10-27T07:27:15.423Z,9.00
2022-10-27T07:29:42.321Z,10.13
2022-10-27T07:32:09.217Z,8.98
2022-10-27T07:34:36.149Z,10.45
2022-10-27T07:37:03.028Z,10.43
2022-10-27T07:39:29.976Z,9.68
2022-10-27T07:41:56.877Z,9.50
2022-10-27T07:44:23.936Z,15.10
2022-10-27T07:46:50.949Z,9.20
2022-10-27T07:49:17.858Z,11.73
2022-10-27T07:51:44.793Z,11.90
2022-10-27T07:54:11.789Z,11.07
2022-10-27T07:56:38.698Z,7.97
2022-10-27T07:59:05.772Z,8.07
2022-10-27T08:01:32.941Z,10.93
2022-10-27T08:03:59.952Z,12.25
2022-10-27T08:06:26.897Z,12.23
2022-10-27T08:08:53.860Z,8.93
2022-10-27T08:11:22.877Z,11.70
2022-10-27T08:13:50.286Z,9.57
2022-10-27T08:16:17.211Z,13.57
2022-10-27T08:18:44.204Z,8.68
2022-10-27T08:21:11.138Z,11.38
2022-10-27T08:23:39.619Z,14.25
2022-10-27T08:26:06.602Z,9.65
2022-10-27T08:28:33.499Z,8.70
2022-10-27T08:31:00.434Z,9.90
2022-10-27T08:33:27.366Z,9.20
2022-10-27T08:35:54.260Z,10.48
2022-10-27T08:38:21.505Z,8.50
2022-10-27T08:40:57.602Z,9.70
2022-10-27T08:44:00.671Z,10.95
2022-10-27T08:46:38.630Z,10.15
2022-10-27T08:49:10.044Z,16.40
2022-10-27T08:51:37.681Z,13.02
2022-10-27T08:54:06.289Z,9.35
2022-10-27T08:56:40.030Z,7.90
2022-10-27T08:59:15.496Z,11.18
2022-10-27T09:02:08.922Z,10.95
2022-10-27T09:04:47.638Z,9.20
2022-10-27T09:07:41.177Z,10.90
2022-10-27T09:10:31.837Z,12.00
2022-10-27T09:13:07.720Z,10.63
2022-10-27T09:15:42.526Z,9.73
2022-10-27T09:18:24.377Z,10.77
2022-10-27T09:20:59.612Z,8.80
2022-10-27T09:23:34.735Z,8.10
2022-10-27T09:26:01.863Z,8.73
2022-10-27T09:28:43.520Z,7.70
2022-10-27T09:31:18.280Z,13.98
2022-10-27T09:34:10.110Z,11.68
2022-10-27T09:36:37.054Z,11.00
2022-10-27T09:39:04.016Z,7.70
2022-10-27T09:41:32.242Z,10.20
2022-10-27T09:44:00.758Z,10.30
2022-10-27T09:46:30.008Z,13.55
2022-10-27T09:49:08.352Z,9.82
2022-10-27T09:51:50.111Z,12.68
2022-10-27T09:54:55.454Z,10.50
2022-10-27T09:57:29.057Z,9.63
2022-10-27T10:00:16.118Z,11.02
2022-10-27T10:03:05.331Z,14.13
2022-10-27T10:05:37.873Z,9.98
2022-10-27T10:08:25.657Z,8.18
2022-10-27T10:10:58.680Z,7.07
2022-10-27T10:13:30.295Z,8.93
2022-10-27T10:16:06.158Z,13.23
2022-10-27T10:18:35.319Z,9.93
2022-10-27T10:21:11.226Z,8.85
2022-10-27T10:23:52.231Z,11.18
2022-10-27T10:26:21.053Z,11.13
2022-10-27T10:28:54.895Z,9.50
2022-10-27T10:31:27.752Z,12.85
2022-10-27T10:34:26.417Z,8.93
2022-10-27T10:36:53.387Z,12.73
2022-10-27T10:39:24.598Z,21.02
2022-10-27T10:42:14.505Z,9.55
2022-10-27T10:44:41.652Z,8.35
2022-10-27T10:47:28.970Z,12.40
2022-10-27T10:50:00.709Z,17.00
2022-10-27T10:52:38.374Z,10.82
2022-10-27T10:55:18.214Z,9.55
2022-10-27T10:57:46.427Z,11.60
2022-10-27T11:00:18.835Z,8.10
2022-10-27T11:03:17.451Z,11.60
2022-10-27T11:05:44.647Z,11.13
2022-10-27T11:08:22.689Z,8.15
2022-10-27T11:10:51.959Z,8.32
2022-10-27T11:13:20.976Z,17.15
2022-10-27T11:16:06.651Z,10.38
2022-10-27T11:18:35.560Z,12.23
2022-10-27T11:21:22.245Z,17.30
2022-10-27T11:23:51.841Z,17.02
2022-10-27T11:26:23.806Z,13.43
2022-10-27T11:29:03.228Z,12.50
2022-10-27T11:31:56.980Z,9.52
2022-10-27T11:35:01.702Z,13.73
2022-10-27T11:40:39.122Z,11.05
2022-10-27T11:43:15.739Z,11.85
2022-10-27T11:46:00.057Z,15.55
2022-10-27T11:48:44.913Z,11.82
2022-10-27T11:51:41.112Z,12.90
2022-10-27T11:54:08.180Z,17.25
2022-10-27T11:56:35.062Z,11.13
2022-10-27T11:59:18.431Z,9.32
2022-10-27T12:02:03.946Z,12.35
2022-10-27T12:04:43.014Z,11.20
2022-10-27T12:07:21.663Z,10.90
2022-10-27T12:10:18.147Z,13.90
2022-10-27T12:12:47.741Z,14.35
2022-10-27T12:15:33.511Z,13.20
2022-10-27T12:18:19.133Z,13.35
2022-10-27T12:21:03.219Z,12.75
2022-10-27T12:23:41.125Z,7.40
2022-10-27T12:26:14.697Z,12.98
2022-10-27T12:28:42.278Z,10.77
2022-10-27T12:31:15.664Z,12.45
2022-10-27T12:33:42.667Z,7.50
2022-10-27T12:36:34.978Z,13.63
2022-10-27T12:39:02.084Z,12.93
2022-10-27T12:41:42.402Z,10.32
2022-10-27T12:44:23.249Z,13.75
2022-10-27T12:46:50.145Z,20.85
2022-10-27T12:49:40.596Z,16.40
2022-10-27T12:52:24.169Z,9.80
2022-10-27T12:55:23.741Z,12.38
2022-10-27T12:58:05.599Z,14.55
2022-10-27T13:00:52.108Z,10.77
2022-10-27T13:03:30.958Z,10.75
2022-10-27T13:05:57.836Z,12.18
2022-10-27T13:11:45.555Z,10.57
2022-10-27T13:14:48.053Z,13.23
2022-10-27T13:17:44.116Z,11.77
2022-10-27T13:20:35.011Z,17.40
2022-10-27T13:23:09.792Z,13.85
2022-10-27T13:25:43.408Z,15.65
2022-10-27T13:28:36.644Z,13.88
2022-10-27T13:31:11.033Z,17.05
2022-10-27T13:33:40.202Z,14.35
2022-10-27T13:36:21.217Z,13.38
2022-10-27T13:38:49.181Z,14.57
2022-10-27T13:41:46.431Z,18.63
2022-10-27T13:44:27.193Z,7.88
2022-10-27T13:47:11.402Z,15.27
2022-10-27T13:49:41.156Z,11.60
2022-10-27T13:52:16.702Z,11.40
2022-10-27T13:54:53.272Z,12.05
2022-10-27T14:00:21.014Z,16.52
2022-10-27T14:03:08.483Z,11.48
2022-10-27T14:08:25.632Z,12.85
2022-10-27T14:10:54.619Z,12.35
2022-10-27T14:13:32.282Z,10.10
2022-10-27T14:16:02.983Z,14.98
2022-10-27T14:18:36.750Z,13.77
2022-10-27T14:21:26.089Z,13.95
2022-10-27T14:23:53.463Z,19.80
2022-10-27T14:26:24.554Z,15.32
2022-10-27T14:28:51.728Z,14.18
2022-10-27T14:31:20.922Z,12.57
2022-10-27T14:33:48.420Z,9.13
2022-10-27T14:39:04.887Z,20.35
2022-10-27T14:41:34.010Z,10.43
2022-10-27T14:44:02.886Z,12.27
2022-10-27T14:46:39.882Z,12.93
2022-10-27T14:49:09.260Z,14.73
2022-10-27T14:51:39.128Z,9.75
2022-10-27T14:56:39.102Z,14.02
2022-10-27T14:59:24.744Z,15.15
2022-10-27T15:01:52.387Z,17.60
2022-10-27T15:04:27.566Z,17.50
2022-10-27T15:06:57.481Z,14.93
2022-10-27T15:09:29.482Z,15.90
2022-10-27T15:11:56.675Z,15.27
2022-10-27T15:14:24.424Z,13.20
2022-10-27T15:16:52.290Z,13.43
2022-10-27T15:19:19.786Z,11.45
2022-10-27T15:21:47.419Z,15.40
2022-10-27T15:24:19.172Z,18.13
2022-10-27T15:26:47.164Z,12.10
2022-10-27T15:29:17.150Z,11.65
2022-10-27T15:31:45.085Z,13.93
2022-10-27T15:34:36.083Z,16.67
2022-10-27T15:37:30.367Z,10.40
2022-10-27T15:40:18.792Z,16.30
2022-10-27T15:42:46.021Z,12.63
2022-10-27T15:45:41.701Z,17.77
2022-10-27T15:48:30.659Z,17.05
2022-10-27T15:51:00.412Z,13.60
2022-10-27T15:53:27.592Z,14.60
2022-10-27T15:56:04.430Z,26.27
2022-10-27T15:58:34.442Z,18.30
2022-10-27T16:01:02.529Z,23.27
2022-10-27T16:03:31.857Z,23.20
2022-10-27T16:06:25.080Z,22.20
2022-10-27T16:08:54.676Z,16.48
2022-10-27T16:11:22.587Z,17.00
2022-10-27T16:14:04.979Z,17.95
2022-10-27T16:16:36.578Z,15.88
2022-10-27T16:19:06.001Z,16.58
2022-10-27T16:21:34.551Z,19.45
2022-10-27T16:24:18.207Z,14.82
2022-10-27T16:26:45.726Z,20.95
2022-10-27T16:29:18.239Z,13.32
2022-10-27T16:31:46.804Z,17.92
2022-10-27T16:34:25.470Z,14.20
2022-10-27T16:36:53.202Z,16.42
2022-10-27T16:39:20.455Z,21.25
2022-10-27T16:41:47.648Z,25.65
2022-10-27T16:44:15.986Z,16.60
2022-10-27T16:46:42.934Z,19.77
2022-10-27T16:49:10.016Z,15.07
2022-10-27T16:51:37.024Z,14.30
2022-10-27T16:54:04.443Z,13.30
2022-10-27T16:56:45.633Z,14.45
2022-10-27T16:59:12.743Z,16.27
2022-10-27T17:01:39.776Z,15.32
2022-10-27T17:04:06.838Z,13.85
2022-10-27T17:06:33.757Z,16.10
2022-10-27T17:09:00.698Z,14.50
2022-10-27T17:11:27.647Z,15.50
2022-10-27T17:13:54.618Z,17.58
2022-10-27T17:16:21.483Z,15.82
2022-10-27T17:18:48.426Z,15.38
2022-10-27T17:21:16.708Z,18.23
2022-10-27T17:23:45.345Z,16.85
2022-10-27T17:26:14.141Z,12.25
2022-10-27T17:28:42.289Z,17.52
2022-10-27T17:31:12.103Z,15.23
2022-10-27T17:33:39.730Z,12.48
2022-10-27T17:36:14.371Z,17.75
2022-10-27T17:38:41.921Z,15.82
2022-10-27T17:41:11.030Z,20.45
2022-10-27T17:43:38.533Z,19.70
2022-10-27T17:46:16.646Z,14.30
2022-10-27T17:48:46.911Z,25.27
2022-10-27T17:51:19.775Z,14.20
2022-10-27T17:53:47.462Z,12.57
2022-10-27T17:56:18.441Z,11.30
2022-10-27T17:58:46.124Z,20.08
2022-10-27T18:01:17.079Z,16.73
2022-10-27T18:03:45.618Z,16.05
2022-10-27T18:06:15.260Z,23.50
2022-10-27T18:08:42.512Z,20.73
2022-10-27T18:11:15.982Z,14.27
2022-10-27T18:13:45.208Z,16.75
2022-10-27T18:16:24.141Z,14.73
2022-10-27T18:19:07.471Z,15.25
2022-10-27T18:21:38.219Z,19.55
2022-10-27T18:24:06.995Z,12.98
2022-10-27T18:26:36.222Z,18.77
2022-10-27T18:29:04.146Z,15.68
2022-10-27T18:31:36.170Z,12.13
2022-10-27T18:34:08.629Z,14.73
2022-10-27T18:36:36.573Z,17.92
2022-10-27T18:39:04.617Z,18.42
2022-10-27T18:41:34.204Z,13.70
2022-10-27T18:44:02.303Z,14.63
2022-10-27T18:46:29.428Z,15.45
2022-10-27T18:49:01.901Z,15.05
2022-10-27T18:51:31.208Z,20.73
2022-10-27T18:54:03.720Z,15.52
2022-10-27T18:56:31.480Z,13.55
2022-10-27T18:59:01.309Z,19.10
2022-10-27T19:01:29.015Z,14.20
2022-10-27T19:03:57.980Z,15.27
2022-10-27T19:06:26.258Z,27.55
2022-10-27T19:08:53.539Z,16.15
2022-10-27T19:11:23.502Z,17.20
2022-10-27T19:13:50.730Z,19.75
2022-10-27T19:16:20.142Z,18.58
2022-10-27T19:18:47.547Z,13.70
2022-10-27T19:21:19.714Z,18.48
2022-10-27T19:23:52.464Z,19.13
2022-10-27T19:26:21.395Z,16.67
2022-10-27T19:28:48.874Z,19.80
2022-10-27T19:31:19.568Z,15.35
2022-10-27T19:33:47.574Z,11.50
2022-10-27T19:36:25.047Z,11.40
2022-10-27T19:38:52.612Z,19.38
2022-10-27T19:41:29.829Z,12.75
2022-10-27T19:43:58.164Z,18.38
2022-10-27T19:46:27.166Z,15.43
2022-10-27T19:48:56.784Z,15.02
2022-10-27T19:51:27.007Z,14.38
2022-10-27T19:53:56.641Z,15.98
2022-10-27T19:56:25.255Z,20.90
2022-10-27T19:58:54.533Z,19.48
2022-10-27T20:01:24.904Z,16.20
2022-10-27T20:03:52.152Z,14.82
2022-10-27T20:06:19.746Z,15.07
2022-10-27T20:08:53.528Z,13.40
2022-10-27T20:11:25.088Z,12.43
2022-10-27T20:13:54.949Z,15.50
2022-10-27T20:16:24.312Z,17.50
2022-10-27T20:18:51.907Z,12.90
2022-10-27T20:21:20.016Z,17.95
2022-10-27T20:23:47.199Z,16.42
2022-10-27T20:26:31.339Z,15.70
2022-10-27T20:31:25.263Z,16.67
2022-10-27T20:33:52.195Z,17.10
2022-10-27T20:36:19.202Z,13.30
2022-10-27T20:38:46.126Z,21.33
2022-10-27T20:41:16.197Z,15.90
2022-10-27T20:43:43.517Z,14.77
2022-10-27T20:46:11.201Z,17.70
2022-10-27T20:48:39.907Z,18.55
2022-10-27T20:51:11.735Z,12.38
2022-10-27T20:53:39.954Z,17.77
2022-10-27T20:56:08.079Z,14.98
2022-10-27T20:58:35.040Z,16.00
2022-10-27T21:01:15.216Z,16.10
2022-10-27T21:03:42.698Z,18.88
2022-10-27T21:06:09.664Z,17.13
2022-10-27T21:08:36.633Z,14.52
2022-10-27T21:11:04.361Z,20.83
2022-10-27T21:13:31.563Z,13.45
2022-10-27T21:15:59.720Z,18.45
2022-10-27T21:18:27.059Z,21.40
2022-10-27T21:20:54.198Z,14.75
2022-10-27T21:23:21.262Z,15.43
2022-10-27T21:25:48.289Z,17.20
2022-10-27T21:28:15.501Z,18.05
2022-10-27T21:30:42.406Z,18.13
2022-10-27T21:33:09.361Z,13.57
2022-10-27T21:35:36.267Z,13.98
2022-10-27T21:38:03.744Z,22.02
2022-10-27T21:40:30.630Z,16.92
2022-10-27T21:42:57.691Z,13.82
2022-10-27T21:45:24.755Z,14.85
2022-10-27T21:47:51.945Z,16.80
2022-10-27T21:50:19.066Z,13.55
2022-10-27T21:52:46.035Z,17.15
2022-10-27T21:55:12.954Z,14.80
2022-10-27T21:57:39.888Z,17.95
2022-10-27T22:00:07.458Z,12.98
2022-10-27T22:02:34.377Z,12.02
2022-10-27T22:05:01.324Z,11.65
2022-10-27T22:07:28.273Z,13.68
2022-10-27T22:09:55.185Z,14.52
2022-10-27T22:12:22.214Z,19.33
2022-10-27T22:14:49.182Z,11.88
2022-10-27T22:17:16.115Z,15.80
2022-10-27T22:19:42.989Z,12.30
2022-10-27T22:22:09.975Z,14.27
2022-10-27T22:24:36.868Z,14.95
2022-10-27T22:27:04.005Z,14.23
2022-10-27T22:29:30.923Z,19.13
2022-10-27T22:31:57.904Z,16.30
2022-10-27T22:34:24.843Z,16.60
2022-10-27T22:36:51.766Z,13.95
2022-10-27T22:39:18.651Z,15.40
2022-10-27T22:41:45.772Z,19.02
2022-10-27T22:44:12.671Z,16.48
2022-10-27T22:46:39.694Z,16.35
2022-10-27T22:49:06.582Z,13.40
2022-10-27T22:51:33.600Z,16.13
2022-10-27T22:54:00.533Z,17.33
2022-10-27T22:56:30.418Z,21.27
2022-10-27T22:59:00.042Z,12.98
2022-10-27T23:01:29.502Z,14.10
2022-10-27T23:03:58.308Z,15.07
2022-10-27T23:06:26.757Z,14.80
2022-10-27T23:08:57.505Z,17.05
2022-10-27T23:11:26.205Z,14.48
2022-10-27T23:13:53.202Z,19.23
2022-10-27T23:16:20.132Z,16.73
2022-10-27T23:18:47.073Z,17.85
2022-10-27T23:21:16.110Z,14.80
2022-10-27T23:23:43.528Z,15.73
2022-10-27T23:26:20.680Z,16.98
2022-10-27T23:28:55.735Z,18.23
2022-10-27T23:31:23.559Z,16.55
2022-10-27T23:34:02.129Z,16.02
2022-10-27T23:36:31.183Z,16.67
2022-10-27T23:38:59.382Z,14.32
2022-10-27T23:41:26.750Z,12.27
2022-10-27T23:43:55.963Z,15.10
2022-10-27T23:46:24.661Z,13.15
2022-10-27T23:48:52.744Z,16.08
2022-10-27T23:53:52.742Z,16.95
2022-10-27T23:56:19.942Z,17.45
2022-10-27T23:58:47.679Z,15.35
